Time;durP1;ratioP1;P1;durP2;ratioP2;P2;SDS_P1;SDS_P2;PMS_P1;PMS_P2;Temp;Humidity;BMP_temperature;BMP_pressure;BME280_temperature;BME280_humidity;BME280_pressure;Samples;Min_cycle;Max_cycle;Signal;HPM_P1;HPM_P2
2022/07/23 00:00:23;;;;;;;13.85;5.58;;;;;;;16.76;56.57;95808.19;1644832;87;21066;-64
2022/07/23 00:02:52;;;;;;;13.32;4.50;;;;;;;16.80;56.62;95813.81;1644675;87;21069;-64
2022/07/23 00:05:19;;;;;;;13.70;4.53;;;;;;;16.80;56.79;95813.81;1645187;87;21050;-64
2022/07/23 00:07:46;;;;;;;11.75;4.45;;;;;;;16.84;56.83;95803.44;1644648;87;21050;-64
2022/07/23 00:10:12;;;;;;;11.60;4.50;;;;;;;16.85;56.76;95803.83;1644707;87;21046;-64
2022/07/23 00:12:40;;;;;;;16.40;4.97;;;;;;;16.88;56.47;95800.17;1639035;87;21066;-64
2022/07/23 00:15:09;;;;;;;13.20;4.50;;;;;;;16.90;56.60;95803.66;1637640;88;21010;-64
2022/07/23 00:17:35;;;;;;;16.65;5.22;;;;;;;16.97;56.54;95789.62;1644968;87;21041;-64
2022/07/23 00:20:04;;;;;;;16.93;4.47;;;;;;;16.99;56.00;95797.96;1637731;88;21050;-64
2022/07/23 00:22:31;;;;;;;16.40;4.70;;;;;;;17.03;57.35;95794.69;1637308;88;21170;-64
2022/07/23 00:24:57;;;;;;;17.73;5.28;;;;;;;17.06;56.61;95792.79;1644863;87;21042;-64
2022/07/23 00:27:24;;;;;;;10.72;4.55;;;;;;;17.06;56.79;95791.93;1637759;88;21050;-64
2022/07/23 00:29:51;;;;;;;14.50;4.85;;;;;;;17.09;56.82;95789.13;1637894;88;21118;-64
2022/07/23 00:32:18;;;;;;;14.35;4.80;;;;;;;17.17;56.75;95796.81;1645245;87;21086;-64
2022/07/23 00:34:44;;;;;;;14.80;4.37;;;;;;;17.23;56.69;95793.87;1637732;88;21030;-64
2022/07/23 00:37:11;;;;;;;15.68;4.62;;;;;;;17.23;56.40;95798.73;1637732;88;21573;-64
2022/07/23 00:39:37;;;;;;;16.27;4.62;;;;;;;17.24;55.97;95800.97;1645065;87;21045;-64
2022/07/23 00:42:04;;;;;;;18.00;4.92;;;;;;;17.20;56.08;95794.88;1637545;88;21094;-64
2022/07/23 00:44:31;;;;;;;12.82;4.00;;;;;;;17.12;56.90;95794.33;1637575;88;21031;-64
2022/07/23 00:46:59;;;;;;;10.78;4.42;;;;;;;17.08;56.62;95795.38;1645104;87;21130;-64
2022/07/23 00:49:29;;;;;;;16.15;4.87;;;;;;;17.02;57.08;95797.83;1637282;88;21059;-64
2022/07/23 00:51:57;;;;;;;13.88;4.35;;;;;;;17.07;56.42;95788.32;1637567;87;21042;-64
2022/07/23 00:54:27;;;;;;;8.80;4.40;;;;;;;17.03;56.25;95786.26;1611553;89;21577;-64
2022/07/23 00:56:54;;;;;;;12.40;4.22;;;;;;;17.05;56.22;95783.51;1637652;88;21110;-64
2022/07/23 00:59:21;;;;;;;13.72;4.37;;;;;;;16.98;55.94;95784.69;1644869;87;21094;-64
2022/07/23 01:01:48;;;;;;;8.40;4.20;;;;;;;16.86;57.38;95784.27;1637710;88;21042;-64
2022/07/23 01:04:16;;;;;;;11.12;4.85;;;;;;;16.82;58.48;95791.97;1637477;88;21059;-64
2022/07/23 01:06:45;;;;;;;13.25;4.50;;;;;;;16.80;58.13;95793.82;1644947;87;21121;-64
2022/07/23 01:09:12;;;;;;;15.65;4.58;;;;;;;16.77;58.26;95792.59;1637378;88;21056;-64
2022/07/23 01:11:39;;;;;;;11.70;4.10;;;;;;;16.72;58.11;95792.38;1638054;86;21066;-64
2022/07/23 01:14:12;;;;;;;9.68;4.05;;;;;;;16.63;57.32;95793.58;1642921;87;21018;-64
2022/07/23 01:16:42;;;;;;;12.80;4.15;;;;;;;16.65;57.80;95789.93;1639915;87;21548;-64
2022/07/23 01:19:10;;;;;;;10.53;4.15;;;;;;;16.63;58.19;95790.48;1640234;87;21003;-64
2022/07/23 01:21:41;;;;;;;9.45;4.10;;;;;;;16.60;57.30;95790.58;1642871;87;21046;-64
2022/07/23 01:24:09;;;;;;;11.45;4.40;;;;;;;16.60;57.12;95796.38;1639841;87;21010;-64
2022/07/23 01:26:41;;;;;;;11.28;4.35;;;;;;;16.57;58.17;95788.04;1640227;87;21082;-64
2022/07/23 01:29:07;;;;;;;10.53;4.50;;;;;;;16.46;58.85;95796.92;1640318;87;21527;-64
2022/07/23 01:31:34;;;;;;;11.57;4.37;;;;;;;16.38;59.33;95799.88;1625589;88;21060;-64
2022/07/23 01:34:01;;;;;;;12.35;4.40;;;;;;;16.31;58.84;95791.72;1640138;87;21018;-64
2022/07/23 01:36:29;;;;;;;10.03;4.15;;;;;;;16.32;58.39;95789.45;1643096;87;20999;-64
2022/07/23 01:38:55;;;;;;;11.12;4.28;;;;;;;16.33;57.96;95789.88;1625469;88;20983;-64
2022/07/23 01:41:22;;;;;;;9.98;4.12;;;;;;;16.25;57.97;95786.61;1640018;87;21050;-64
2022/07/23 01:43:49;;;;;;;9.13;4.00;;;;;;;16.27;57.92;95779.91;1642812;87;21568;-64
2022/07/23 01:46:16;;;;;;;11.05;4.35;;;;;;;16.29;58.24;95782.91;1639793;87;21054;-64
2022/07/23 01:48:45;;;;;;;15.18;4.67;;;;;;;16.25;58.82;95785.74;1640082;87;21476;-64
2022/07/23 01:51:30;;;;;;;9.98;4.70;;;;;;;16.15;59.53;95781.22;1642416;87;21030;-64
2022/07/23 01:53:59;;;;;;;11.50;4.50;;;;;;;16.06;59.28;95780.26;1639164;87;21082;-64
2022/07/23 01:56:26;;;;;;;9.15;4.30;;;;;;;16.00;59.65;95775.56;1639764;87;21031;-64
2022/07/23 01:58:52;;;;;;;14.60;4.37;;;;;;;16.00;58.92;95774.67;1640556;87;21014;-64
2022/07/23 02:01:20;;;;;;;8.68;4.25;;;;;;;15.99;58.86;95775.14;1640090;87;21043;-64
2022/07/23 02:03:47;;;;;;;10.53;4.92;;;;;;;15.90;60.13;95773.28;1640149;87;21500;-64
2022/07/23 02:06:14;;;;;;;7.35;3.95;;;;;;;15.72;61.71;95778.80;1642909;87;21069;-64
2022/07/23 02:08:40;;;;;;;10.25;4.40;;;;;;;15.65;61.29;95776.81;1625709;88;21098;-64
2022/07/23 02:11:07;;;;;;;9.48;4.00;;;;;;;15.68;60.63;95777.17;1640063;87;21050;-64
2022/07/23 02:13:34;;;;;;;9.45;4.12;;;;;;;15.65;60.68;95782.57;1638211;87;21074;-64
2022/07/23 02:16:01;;;;;;;9.05;4.10;;;;;;;15.69;60.67;95783.77;1634895;88;21122;-64
2022/07/23 02:18:29;;;;;;;15.18;4.83;;;;;;;15.72;60.36;95785.45;1634898;87;21023;-64
2022/07/23 02:20:56;;;;;;;10.72;3.92;;;;;;;15.78;60.46;95788.78;1637548;88;21034;-64
2022/07/23 02:23:22;;;;;;;8.45;3.98;;;;;;;15.78;59.71;95783.92;1620681;88;21082;-64
2022/07/23 02:25:49;;;;;;;9.68;3.98;;;;;;;15.77;59.53;95787.05;1634942;87;21099;-64
2022/07/23 02:28:16;;;;;;;6.22;3.87;;;;;;;15.83;59.22;95787.28;1637675;88;21019;-64
2022/07/23 02:30:43;;;;;;;10.53;4.15;;;;;;;15.87;60.24;95784.04;1635240;88;21091;-64
2022/07/23 02:33:10;;;;;;;11.55;4.60;;;;;;;15.85;60.24;95787.21;1635025;87;21043;-64
2022/07/23 02:35:37;;;;;;;13.35;4.55;;;;;;;15.82;61.22;95788.66;1637627;88;21045;-64
2022/07/23 02:38:04;;;;;;;9.58;4.08;;;;;;;15.81;60.80;95793.13;1634865;88;21132;-64
2022/07/23 02:40:31;;;;;;;9.00;3.95;;;;;;;15.84;60.69;95788.15;1635006;87;21046;-64
2022/07/23 02:42:58;;;;;;;12.07;4.00;;;;;;;15.84;60.97;95786.82;1637767;88;21042;-64
2022/07/23 02:45:25;;;;;;;8.15;4.22;;;;;;;15.81;60.36;95784.27;1635136;88;21087;-64
2022/07/23 02:47:52;;;;;;;9.43;4.80;;;;;;;15.77;61.36;95787.48;1635098;87;21046;-64
2022/07/23 02:50:19;;;;;;;12.75;4.80;;;;;;;15.72;62.13;95790.34;1638003;87;21054;-64
2022/07/23 02:52:46;;;;;;;8.20;4.40;;;;;;;15.71;61.58;95782.41;1634953;88;21091;-64
2022/07/23 02:55:13;;;;;;;16.80;4.95;;;;;;;15.68;61.68;95787.80;1634817;87;21166;-64
2022/07/23 02:57:40;;;;;;;11.35;4.67;;;;;;;15.64;61.47;95782.17;1637539;88;21059;-64
2022/07/23 03:00:09;;;;;;;7.97;3.75;;;;;;;15.65;61.46;95793.21;1595317;89;21023;-64
2022/07/23 03:02:35;;;;;;;9.45;4.00;;;;;;;15.64;61.05;95790.16;1635087;87;21110;-64
2022/07/23 03:05:03;;;;;;;10.35;4.65;;;;;;;15.62;61.13;95787.53;1637642;87;21038;-64
2022/07/23 03:07:30;;;;;;;13.65;4.45;;;;;;;15.57;61.63;95790.39;1620792;88;21046;-64
2022/07/23 03:09:57;;;;;;;9.83;4.80;;;;;;;15.53;62.82;95788.74;1634658;88;21075;-64
2022/07/23 03:12:23;;;;;;;6.97;4.03;;;;;;;15.49;61.99;95793.75;1639610;87;21042;-64
2022/07/23 03:14:50;;;;;;;9.83;4.20;;;;;;;15.52;61.57;95783.03;1617446;88;21522;-64
2022/07/23 03:17:17;;;;;;;11.08;4.30;;;;;;;15.58;61.70;95788.59;1637631;88;21047;-64
2022/07/23 03:19:44;;;;;;;9.95;4.42;;;;;;;15.63;61.37;95788.43;1644950;87;21543;-64
2022/07/23 03:22:11;;;;;;;11.63;3.80;;;;;;;15.66;61.45;95790.98;1637581;88;21532;-64
2022/07/23 03:24:55;;;;;;;8.53;3.92;;;;;;;15.63;61.00;95791.09;1637542;88;21504;-64
2022/07/23 03:27:31;;;;;;;29.72;5.70;;;;;;;15.58;61.65;95788.59;1645005;87;21580;-64
2022/07/23 03:29:59;;;;;;;11.63;4.17;;;;;;;15.58;61.42;95788.13;1637730;87;21054;-64
2022/07/23 03:32:27;;;;;;;5.65;3.87;;;;;;;15.63;61.26;95791.09;1637930;87;21003;-64
2022/07/23 03:34:54;;;;;;;9.68;4.20;;;;;;;15.70;60.92;95791.28;1644991;87;21063;-64
2022/07/23 03:37:21;;;;;;;8.05;3.90;;;;;;;15.75;61.46;95790.69;1637657;88;21089;-64
2022/07/23 03:39:48;;;;;;;9.50;4.20;;;;;;;15.82;61.50;95792.66;1637535;88;21026;-64
2022/07/23 03:42:14;;;;;;;8.93;4.20;;;;;;;15.88;61.48;95796.44;1644854;87;21069;-64
2022/07/23 03:44:41;;;;;;;9.68;3.70;;;;;;;15.87;61.83;95796.88;1637613;88;21059;-64
2022/07/23 03:47:08;;;;;;;5.83;3.50;;;;;;;15.89;61.26;95792.38;1637692;88;21091;-64
2022/07/23 03:49:35;;;;;;;9.33;4.67;;;;;;;15.99;61.22;95792.44;1644918;87;21070;-64
2022/07/23 03:52:02;;;;;;;10.43;4.62;;;;;;;15.97;62.52;95797.41;1637420;88;21493;-64
2022/07/23 03:54:29;;;;;;;9.18;4.45;;;;;;;15.96;62.58;95795.69;1637733;88;21066;-64
2022/07/23 03:56:56;;;;;;;7.15;3.67;;;;;;;16.00;62.64;95787.55;1644879;87;21026;-64
2022/07/23 03:59:22;;;;;;;7.90;4.10;;;;;;;16.11;62.35;95787.14;1637647;88;21047;-64
2022/07/23 04:01:49;;;;;;;8.95;4.28;;;;;;;16.18;61.55;95792.64;1637825;87;21532;-64
2022/07/23 04:04:16;;;;;;;8.10;4.25;;;;;;;16.29;61.73;95790.90;1644765;87;21018;-65
2022/07/23 04:06:43;;;;;;;7.17;4.00;;;;;;;16.39;61.70;95784.30;1637562;87;21160;-64
2022/07/23 04:09:10;;;;;;;10.65;4.70;;;;;;;16.48;61.60;95786.19;1637891;87;21043;-64
2022/07/23 04:11:37;;;;;;;7.50;4.78;;;;;;;16.57;60.75;95785.84;1644646;87;21062;-64
2022/07/23 04:14:04;;;;;;;6.95;4.42;;;;;;;16.65;60.93;95788.59;1639607;87;21091;-64
2022/07/23 04:16:31;;;;;;;11.30;4.20;;;;;;;16.76;60.43;95786.87;1640112;87;21470;-64
2022/07/23 04:18:58;;;;;;;9.40;4.37;;;;;;;16.86;60.36;95780.73;1642578;87;21058;-64
2022/07/23 04:21:26;;;;;;;11.18;3.60;;;;;;;16.98;60.08;95780.69;1614060;87;21051;-64
2022/07/23 04:23:53;;;;;;;10.10;4.35;;;;;;;17.09;60.07;95786.47;1640048;87;21050;-64
2022/07/23 04:26:21;;;;;;;9.30;4.53;;;;;;;17.18;59.49;95782.53;1642737;87;21046;-64
2022/07/23 04:28:48;;;;;;;7.62;4.30;;;;;;;17.28;58.73;95775.89;1614266;87;21046;-64
2022/07/23 04:31:15;;;;;;;14.03;5.30;;;;;;;17.39;59.07;95776.31;1613857;87;21096;-65
2022/07/23 04:33:41;;;;;;;12.68;4.72;;;;;;;17.55;58.85;95778.33;1642772;87;21058;-65
2022/07/23 04:36:08;;;;;;;12.93;5.42;;;;;;;17.67;58.61;95776.47;1640237;87;21031;-64
2022/07/23 04:38:35;;;;;;;7.72;5.05;;;;;;;17.79;58.20;95779.94;1639718;87;21521;-64
2022/07/23 04:41:03;;;;;;;12.88;5.20;;;;;;;17.90;57.63;95778.16;1642718;87;21018;-64
2022/07/23 04:43:31;;;;;;;10.98;5.35;;;;;;;18.02;57.12;95777.61;1639912;87;21839;-64
2022/07/23 04:45:58;;;;;;;10.20;6.10;;;;;;;18.15;56.84;95781.45;1640046;87;21043;-64
2022/07/23 04:48:25;;;;;;;7.47;5.10;;;;;;;18.43;56.89;95776.17;1642744;87;21102;-64
2022/07/23 04:50:54;;;;;;;12.20;6.08;;;;;;;18.43;56.89;95776.17;1639095;87;21070;-64
2022/07/23 04:53:23;;;;;;;11.05;5.15;;;;;;;18.56;57.10;95774.65;1639739;87;21086;-64
2022/07/23 04:55:52;;;;;;;13.85;5.37;;;;;;;18.71;56.95;95776.20;1612682;89;21019;-64
2022/07/23 04:58:19;;;;;;;8.90;5.05;;;;;;;18.85;56.51;95777.80;1640356;87;21054;-64
2022/07/23 05:00:46;;;;;;;7.83;4.62;;;;;;;18.98;56.26;95774.05;1642746;87;21022;-64
2022/07/23 05:03:13;;;;;;;10.68;4.45;;;;;;;19.11;56.04;95771.16;1625674;88;21561;-64
2022/07/23 05:05:40;;;;;;;8.75;4.80;;;;;;;19.24;55.24;95771.41;1640323;87;21043;-64
2022/07/23 05:08:08;;;;;;;10.85;4.85;;;;;;;19.36;55.12;95772.63;1641720;87;21078;-65
2022/07/23 05:10:36;;;;;;;9.88;4.97;;;;;;;19.50;54.68;95773.23;1640065;87;21533;-64
2022/07/23 05:13:04;;;;;;;14.15;5.10;;;;;;;19.63;54.04;95768.98;1640015;86;21118;-64
2022/07/23 05:15:31;;;;;;;6.55;4.85;;;;;;;19.81;53.91;95768.56;1642852;87;21073;-64
2022/07/23 05:17:58;;;;;;;10.43;4.50;;;;;;;19.96;53.87;95757.48;1639814;87;21035;-64
2022/07/23 05:20:25;;;;;;;10.48;4.78;;;;;;;20.08;53.51;95755.05;1640513;87;21114;-64
2022/07/23 05:22:52;;;;;;;15.40;5.35;;;;;;;20.24;53.71;95755.09;1642582;87;21050;-64
2022/07/23 05:25:19;;;;;;;13.25;5.28;;;;;;;20.39;53.48;95751.19;1639884;87;20983;-64
2022/07/23 05:27:46;;;;;;;15.25;4.97;;;;;;;20.56;53.44;95756.97;1640075;87;21524;-64
2022/07/23 05:30:13;;;;;;;12.55;5.08;;;;;;;20.71;52.99;95761.48;1642689;87;21565;-64
2022/07/23 05:32:40;;;;;;;10.15;4.87;;;;;;;20.86;52.68;95749.88;1640070;87;21073;-64
2022/07/23 05:35:15;;;;;;;12.15;5.33;;;;;;;21.01;52.14;95745.95;1639928;87;21601;-65
2022/07/23 05:37:43;;;;;;;13.50;5.42;;;;;;;21.16;51.77;95739.20;1642981;86;21054;-64
2022/07/23 05:40:12;;;;;;;9.93;4.75;;;;;;;21.31;51.44;95745.50;1640004;87;21026;-65
2022/07/23 05:42:40;;;;;;;11.45;5.22;;;;;;;21.48;50.63;95743.20;1639969;87;21613;-65
2022/07/23 05:45:09;;;;;;;12.47;5.40;;;;;;;21.64;50.07;95734.23;1643010;87;21050;-64
2022/07/23 05:47:47;;;;;;;17.77;5.40;;;;;;;21.81;49.18;95739.45;1640118;87;21038;-64
2022/07/23 05:50:17;;;;;;;12.93;5.60;;;;;;;21.99;49.57;95739.66;1639536;87;21043;-65
2022/07/23 05:52:47;;;;;;;11.63;5.40;;;;;;;22.17;49.00;95732.28;1642836;87;21053;-64
2022/07/23 05:55:21;;;;;;;14.07;5.17;;;;;;;22.34;48.58;95733.10;1615070;88;21086;-65
2022/07/23 05:57:48;;;;;;;10.80;5.60;;;;;;;22.53;48.58;95732.33;1640171;87;21043;-65
2022/07/23 06:00:15;;;;;;;11.75;5.33;;;;;;;22.72;48.36;95731.99;1642876;87;21029;-65
2022/07/23 06:02:42;;;;;;;9.75;5.42;;;;;;;22.89;48.10;95730.42;1639821;87;21047;-65
2022/07/23 06:05:10;;;;;;;12.43;5.35;;;;;;;23.08;47.73;95734.16;1614007;87;21023;-65
2022/07/23 06:07:37;;;;;;;10.40;5.10;;;;;;;23.25;46.43;95733.02;1642884;87;21520;-65
2022/07/23 06:10:06;;;;;;;12.63;5.22;;;;;;;23.40;46.18;95722.20;1639635;87;21031;-65
2022/07/23 06:12:32;;;;;;;12.18;5.53;;;;;;;23.55;45.50;95730.09;1639912;87;21517;-65
2022/07/23 06:15:00;;;;;;;12.65;5.65;;;;;;;23.73;45.10;95731.19;1637535;87;21070;-65
2022/07/23 06:17:27;;;;;;;8.70;5.60;;;;;;;23.89;44.61;95726.95;1634843;88;21130;-65
2022/07/23 06:19:55;;;;;;;12.23;6.35;;;;;;;24.07;44.48;95731.56;1635220;87;21540;-65
2022/07/23 06:22:22;;;;;;;10.25;5.40;;;;;;;24.27;44.29;95730.16;1637751;87;21042;-65
2022/07/23 06:24:51;;;;;;;14.07;5.47;;;;;;;24.43;43.78;95730.78;1634985;88;21038;-65
2022/07/23 06:27:19;;;;;;;11.35;5.62;;;;;;;24.60;43.29;95725.57;1635148;87;21050;-65
2022/07/23 06:29:46;;;;;;;13.75;5.67;;;;;;;24.78;42.74;95716.62;1637845;88;21026;-65
2022/07/23 06:32:13;;;;;;;15.15;5.35;;;;;;;24.97;42.92;95709.37;1634987;88;21034;-65
2022/07/23 06:34:40;;;;;;;14.10;5.55;;;;;;;25.15;42.05;95706.67;1635072;88;21517;-65
2022/07/23 06:37:06;;;;;;;10.15;5.72;;;;;;;25.33;41.71;95715.75;1637963;88;21010;-65
2022/07/23 06:39:33;;;;;;;12.33;4.80;;;;;;;25.49;41.37;95714.95;1635025;88;21082;-65
2022/07/23 06:42:00;;;;;;;13.28;5.60;;;;;;;25.66;40.63;95701.02;1635258;87;21604;-65
2022/07/23 06:44:29;;;;;;;11.95;5.55;;;;;;;25.85;40.56;95696.41;1637654;88;21011;-65
2022/07/23 06:46:56;;;;;;;13.83;5.70;;;;;;;26.05;39.69;95700.77;1635072;88;21528;-65
2022/07/23 06:49:23;;;;;;;12.43;6.00;;;;;;;26.24;39.75;95705.59;1635356;87;21019;-65
2022/07/23 06:51:49;;;;;;;11.78;5.60;;;;;;;26.45;39.68;95704.37;1637754;88;21050;-65
2022/07/23 06:54:16;;;;;;;14.95;6.62;;;;;;;26.63;38.50;95694.80;1634599;88;21043;-65
2022/07/23 06:56:44;;;;;;;15.03;5.90;;;;;;;26.85;38.67;95692.56;1635387;87;21035;-65
2022/07/23 06:59:11;;;;;;;11.97;5.55;;;;;;;27.06;36.19;95691.77;1637778;87;21018;-65
2022/07/23 07:01:38;;;;;;;13.08;5.72;;;;;;;27.25;37.71;95700.63;1635171;88;21019;-65
2022/07/23 07:04:05;;;;;;;16.20;6.25;;;;;;;27.44;37.21;95702.14;1635061;88;21082;-65
2022/07/23 07:06:31;;;;;;;10.80;5.20;;;;;;;27.63;36.40;95708.23;1637709;88;21504;-65
2022/07/23 07:08:58;;;;;;;11.33;4.78;;;;;;;27.82;36.69;95704.84;1635151;88;21014;-65
2022/07/23 07:11:25;;;;;;;9.08;5.00;;;;;;;28.01;35.94;95706.34;1634934;88;21078;-65
2022/07/23 07:13:52;;;;;;;11.78;4.60;;;;;;;28.19;35.50;95703.88;1637351;87;21043;-65
2022/07/23 07:16:19;;;;;;;8.48;4.83;;;;;;;28.37;34.63;95704.11;1634889;87;21129;-65
2022/07/23 07:18:46;;;;;;;9.60;4.90;;;;;;;28.56;34.37;95705.25;1635078;87;21055;-65
2022/07/23 07:21:13;;;;;;;9.68;4.60;;;;;;;28.74;32.77;95702.75;1637344;87;21054;-65
2022/07/23 07:23:39;;;;;;;11.85;4.65;;;;;;;28.90;32.66;95697.17;1620707;89;21039;-65
2022/07/23 07:26:06;;;;;;;11.28;4.45;;;;;;;29.10;30.39;95696.73;1634843;87;21051;-65
2022/07/23 07:28:33;;;;;;;9.33;4.45;;;;;;;29.33;30.25;95696.48;1637722;87;21082;-65
2022/07/23 07:31:00;;;;;;;13.05;4.67;;;;;;;29.51;30.29;95697.52;1635152;88;21031;-65
2022/07/23 07:33:26;;;;;;;10.85;5.12;;;;;;;29.71;29.95;95698.41;1635293;87;21039;-65
2022/07/23 07:35:54;;;;;;;12.78;4.75;;;;;;;29.89;28.99;95693.11;1637414;88;21129;-65
2022/07/23 07:38:21;;;;;;;8.78;4.58;;;;;;;30.09;28.41;95696.66;1634974;88;21550;-65
2022/07/23 07:40:47;;;;;;;13.03;4.42;;;;;;;30.27;28.00;95696.80;1635282;87;21043;-65
2022/07/23 07:43:14;;;;;;;10.25;4.85;;;;;;;30.45;27.99;95696.88;1637767;88;21355;-65
2022/07/23 07:45:41;;;;;;;10.98;4.83;;;;;;;30.66;27.52;95697.16;1620622;89;21134;-65
2022/07/23 07:48:08;;;;;;;9.00;4.85;;;;;;;30.82;26.80;95691.98;1635405;87;21039;-65
2022/07/23 07:50:34;;;;;;;9.08;5.10;;;;;;;31.00;25.53;95690.16;1637523;88;21129;-65
2022/07/23 07:53:01;;;;;;;10.28;4.50;;;;;;;31.18;26.18;95687.97;1620544;89;21055;-65
2022/07/23 07:55:28;;;;;;;11.25;4.87;;;;;;;31.37;25.38;95691.06;1635276;87;21079;-65
2022/07/23 07:57:55;;;;;;;11.08;4.75;;;;;;;31.53;24.65;95683.09;1637472;87;21074;-65
2022/07/23 08:00:22;;;;;;;8.88;4.70;;;;;;;31.70;24.70;95681.36;1635290;88;21071;-65
2022/07/23 08:02:51;;;;;;;10.72;4.25;;;;;;;31.81;23.92;95674.31;1635183;87;21038;-65
2022/07/23 08:05:24;;;;;;;9.30;5.15;;;;;;;31.95;24.43;95678.87;1637864;87;21525;-65
2022/07/23 08:07:51;;;;;;;8.08;4.22;;;;;;;32.14;24.35;95677.84;1635303;88;21067;-65
2022/07/23 08:10:19;;;;;;;10.90;4.50;;;;;;;32.30;23.43;95676.06;1634961;87;21042;-65
2022/07/23 08:12:49;;;;;;;9.00;4.55;;;;;;;32.45;23.94;95676.33;1637881;87;21568;-65
2022/07/23 08:15:19;;;;;;;11.60;4.28;;;;;;;32.62;23.73;95674.59;1639231;87;21057;-66
2022/07/23 08:17:47;;;;;;;10.13;3.95;;;;;;;32.74;23.98;95673.30;1639940;87;21054;-65
2022/07/23 08:20:17;;;;;;;11.43;4.22;;;;;;;32.86;23.74;95674.36;1642900;87;21090;-65
2022/07/23 08:22:58;;;;;;;8.00;4.00;;;;;;;32.96;22.84;95675.96;1640109;87;21086;-65
2022/07/23 08:25:35;;;;;;;8.63;3.90;;;;;;;33.09;23.40;95675.52;1640131;87;21077;-65
2022/07/23 08:28:06;;;;;;;11.73;3.90;;;;;;;33.24;21.84;95668.03;1612587;89;21055;-65
2022/07/23 08:30:34;;;;;;;7.55;3.42;;;;;;;33.33;22.08;95667.89;1640187;87;21058;-66
2022/07/23 08:33:11;;;;;;;6.33;3.83;;;;;;;33.52;22.57;95671.37;1642792;87;21050;-66
2022/07/23 08:35:49;;;;;;;10.20;3.60;;;;;;;33.60;20.98;95670.03;1625736;88;21050;-65
2022/07/23 08:38:19;;;;;;;10.03;3.40;;;;;;;33.69;21.53;95670.89;1640108;87;21082;-65
2022/07/23 08:40:55;;;;;;;6.78;3.62;;;;;;;33.81;20.94;95666.80;1642763;87;21065;-65
2022/07/23 08:43:26;;;;;;;5.75;3.80;;;;;;;33.98;20.71;95670.40;1625736;88;21520;-66
2022/07/23 08:45:56;;;;;;;15.90;4.22;;;;;;;33.98;19.44;95667.66;1640089;87;21027;-65
2022/07/23 08:48:27;;;;;;;9.85;4.72;;;;;;;34.03;20.04;95668.00;1642871;87;21090;-65
2022/07/23 08:50:57;;;;;;;10.03;3.95;;;;;;;34.11;19.86;95671.28;1640241;87;21086;-65
2022/07/23 08:53:27;;;;;;;10.48;4.20;;;;;;;34.16;20.08;95664.77;1640051;87;21516;-65
2022/07/23 08:55:57;;;;;;;7.25;3.50;;;;;;;34.25;20.08;95663.74;1642582;87;21070;-65
2022/07/23 08:58:25;;;;;;;12.05;3.80;;;;;;;34.40;20.57;95663.38;1640209;87;21034;-65
2022/07/23 09:00:51;;;;;;;9.33;3.75;;;;;;;34.68;20.81;95654.25;1640009;87;21074;-66
2022/07/23 09:03:28;;;;;;;6.60;4.20;;;;;;;34.87;20.33;95657.08;1642736;87;21019;-65
2022/07/23 09:05:57;;;;;;;8.70;4.30;;;;;;;34.97;19.87;95658.24;1625829;88;21053;-65
2022/07/23 09:08:28;;;;;;;10.55;4.78;;;;;;;35.04;19.18;95662.51;1639818;87;21062;-65
2022/07/23 09:11:08;;;;;;;8.18;4.15;;;;;;;35.03;18.06;95657.55;1641985;87;21073;-65
2022/07/23 09:13:48;;;;;;;7.95;3.70;;;;;;;35.02;19.20;95659.08;1640014;87;21066;-65
2022/07/23 09:16:25;;;;;;;8.18;3.52;;;;;;;35.27;19.27;95655.73;1637750;88;21026;-65
2022/07/23 09:19:01;;;;;;;9.58;4.03;;;;;;;35.47;18.38;95660.25;1644594;87;21082;-65
2022/07/23 09:21:34;;;;;;;10.93;3.98;;;;;;;35.64;18.87;95665.16;1637678;87;21055;-66
2022/07/23 09:24:08;;;;;;;10.70;4.00;;;;;;;35.91;19.02;95658.23;1637741;88;21043;-65
2022/07/23 09:26:47;;;;;;;10.38;3.72;;;;;;;36.12;18.02;95653.48;1644804;87;21003;-65
2022/07/23 09:29:25;;;;;;;9.75;3.37;;;;;;;36.31;18.72;95650.18;1637768;88;21046;-65
2022/07/23 09:31:58;;;;;;;8.83;3.33;;;;;;;36.47;18.31;95643.69;1637726;88;21049;-65
2022/07/23 09:34:35;;;;;;;10.80;3.45;;;;;;;36.56;17.50;95643.94;1610171;89;21071;-65
2022/07/23 09:37:16;;;;;;;10.18;3.47;;;;;;;36.68;18.01;95632.49;1637644;88;21106;-65
2022/07/23 09:39:43;;;;;;;;;;;;;;;36.80;17.07;95633.73;1647542;87;21022;-65
2022/07/23 09:42:22;;;;;;;9.65;3.80;;;;;;;36.87;17.31;95637.42;1639041;87;20116;-65
2022/07/23 09:44:57;;;;;;;9.88;4.12;;;;;;;36.95;16.96;95630.44;1637815;87;21023;-65
2022/07/23 09:47:30;;;;;;;13.90;3.62;;;;;;;36.79;16.89;95630.13;1645040;87;21011;-65
2022/07/23 09:50:05;;;;;;;7.58;3.10;;;;;;;36.94;16.89;95629.24;1637584;88;21019;-65
2022/07/23 09:52:35;;;;;;;6.60;3.60;;;;;;;37.03;16.22;95628.95;1637885;88;21034;-65
2022/07/23 09:55:06;;;;;;;6.60;3.37;;;;;;;37.18;16.91;95630.34;1644899;87;21053;-65
2022/07/23 09:57:33;;;;;;;7.62;3.72;;;;;;;37.39;16.22;95634.17;1637679;88;21501;-65
2022/07/23 10:00:05;;;;;;;6.83;3.58;;;;;;;37.56;16.70;95638.42;1637732;87;21038;-65
2022/07/23 10:02:33;;;;;;;9.13;3.50;;;;;;;37.62;15.65;95627.14;1644931;87;21559;-65
2022/07/23 10:05:11;;;;;;;8.50;3.25;;;;;;;37.74;15.34;95624.73;1607469;89;21023;-65
2022/07/23 10:07:46;;;;;;;7.53;3.40;;;;;;;37.91;15.35;95628.08;1598669;88;21046;-65
2022/07/23 10:10:31;;;;;;;6.10;3.37;;;;;;;38.02;15.19;95627.56;1644717;87;21106;-65
2022/07/23 10:15:44;;;;;;;10.23;3.83;;;;;;;37.89;15.38;95620.85;1637619;86;21599;-65
2022/07/23 10:18:12;;;;;;;9.75;3.45;;;;;;;37.98;15.05;95619.36;1645066;87;21026;-65
2022/07/23 10:20:40;;;;;;;8.93;3.30;;;;;;;38.04;14.91;95613.08;1637871;87;21050;-65
2022/07/23 10:23:37;;;;;;;8.48;3.20;;;;;;;37.72;14.48;95619.94;1637765;88;21069;-65
2022/07/23 10:26:15;;;;;;;9.88;3.35;;;;;;;37.67;14.64;95613.14;1622108;87;21083;-65
2022/07/23 10:28:58;;;;;;;10.98;3.52;;;;;;;37.63;14.70;95607.69;1637149;87;21011;-65
2022/07/23 10:31:33;;;;;;;7.10;3.22;;;;;;;37.62;14.33;95610.63;1635950;87;21596;-65
2022/07/23 10:34:23;;;;;;;11.38;3.65;;;;;;;37.62;14.70;95610.63;1645048;87;21073;-65
2022/07/23 10:36:58;;;;;;;12.03;3.62;;;;;;;37.48;14.83;95603.27;1637324;88;21137;-65
2022/07/23 10:39:29;;;;;;;6.65;3.62;;;;;;;37.65;14.56;95607.47;1637317;87;21572;-65
2022/07/23 10:42:14;;;;;;;6.47;3.33;;;;;;;37.97;14.37;95595.60;1644907;87;21165;-65
2022/07/23 10:44:45;;;;;;;8.23;3.90;;;;;;;38.16;14.31;95589.44;1617503;88;21018;-65
2022/07/23 10:48:02;;;;;;;6.65;3.42;;;;;;;38.28;14.12;95600.73;1637596;88;21090;-65
2022/07/23 10:50:27;;;;;;;9.00;3.47;;;;;;;37.89;14.56;95597.97;1596903;89;21055;-65
2022/07/23 10:53:17;;;;;;;9.33;3.40;;;;;;;38.39;14.77;95596.06;1637567;88;21051;-65
2022/07/23 10:55:48;;;;;;;12.82;4.15;;;;;;;38.62;14.72;95591.68;1610217;89;21027;-65
2022/07/23 10:58:20;;;;;;;;;;;;;;;38.24;14.48;95593.95;1639496;87;21031;-65
2022/07/23 11:00:47;;;;;;;8.30;3.50;;;;;;;37.88;15.17;95590.24;1610275;89;20110;-65
2022/07/23 11:03:39;;;;;;;12.63;3.40;;;;;;;37.91;13.91;95591.75;1637442;88;21051;-65
2022/07/23 11:06:05;;;;;;;9.63;3.55;;;;;;;38.01;13.98;95590.91;1644244;87;21512;-65
2022/07/23 11:08:32;;;;;;;6.37;3.60;;;;;;;38.35;14.54;95589.24;1637774;87;21011;-65
2022/07/23 11:11:08;;;;;;;7.47;3.83;;;;;;;38.56;14.58;95589.75;1637490;88;21676;-65
2022/07/23 11:13:41;;;;;;;12.07;3.95;;;;;;;38.62;14.35;95588.08;1644736;87;21540;-65
2022/07/23 11:16:23;;;;;;;11.55;4.05;;;;;;;38.57;14.33;95583.17;1639472;87;21081;-66
2022/07/23 11:18:58;;;;;;;10.15;3.75;;;;;;;38.36;14.43;95571.67;1640070;87;21098;-65
2022/07/23 11:21:39;;;;;;;8.73;3.75;;;;;;;38.39;14.94;95573.17;1612396;89;21050;-66
2022/07/23 11:24:13;;;;;;;8.48;3.92;;;;;;;38.82;15.08;95572.48;1640103;87;21548;-66
2022/07/23 11:26:53;;;;;;;14.50;4.22;;;;;;;38.63;14.37;95571.31;1642447;87;21070;-66
2022/07/23 11:29:35;;;;;;;6.33;3.72;;;;;;;38.07;15.14;95576.86;1625867;88;21108;-66
2022/07/23 11:32:26;;;;;;;7.47;3.90;;;;;;;38.00;15.10;95568.56;1640083;87;21096;-65
2022/07/23 11:34:53;;;;;;;7.78;3.98;;;;;;;38.33;15.58;95556.92;1642706;87;21065;-65
2022/07/23 11:37:38;;;;;;;12.00;3.90;;;;;;;38.30;15.10;95557.30;1640067;87;21061;-65
2022/07/23 11:40:16;;;;;;;13.62;3.92;;;;;;;37.85;15.19;95553.97;1640067;87;21553;-65
2022/07/23 11:42:59;;;;;;;6.20;3.52;;;;;;;37.38;15.39;95559.02;1642090;87;21055;-65